Thunder radar more information blitzortung!


Radar de pluja more information rain snow radar


Visita la nostra xarxa de llocs de meteo:

Template documentation
and downloads

And another site



No particular awareness of the weather is required.    There are no Weather-warnings

Pagina Historial Weather Underground text

Diari Resum May 7, 2017 Unitats:  Tant    Imperial   Mètric
« Previous Dia
SegĂźent Dia »
Diari Setmana Mensual Anual Personalitzada
  Maxima: Minima: Media:
Temperatura: 76.8 °F /  24.9 °C 50.7 °F /  10.4 °C 61.9 °F /  16.6 °C
Punt de rosada: 53.6 °F /  12.0 °C 41.5 °F /  5.3 °C 49.5 °F /  9.7 °C
Humitat: 78 % 36 % 65 %
Wind Speed: 15 mph /  24.1 km/h - 4.5 mph /  7.3 km/h
RĂ fegues de vent: 15 mph /  24.1 km/h - -
Vent:- - ESE
Pression baro: 30.2 in /  1020.9 hPa 30 in /  1016.8 hPa -
Precipitacions: 0 in /  0.0 mm    
Historical Graphs
 
 
Dades de taula per May 7, 2017
Temps Temperatura Punt de rosada Pression baro Vent Wind Speed RĂ fegues de vent Humitat Rainfall Rate (Hourly)
00:01 58.6 °F /  14.8 °C 45.7 °F /  7.6 °C 30.1 in /  1019.9 hPa ENE 3.6 mph /  5.8 km/h 3.6 mph /  5.8 km/h 62 % 0 in /  0.0 mm
00:05 52.5 °F /  11.4 °C 42.6 °F /  5.9 °C 30.1 in /  1019.9 hPa ENE 1 mph /  1.6 km/h 2 mph /  3.2 km/h 69 % 0 in /  0.0 mm
00:06 58.5 °F /  14.7 °C 45.5 °F /  7.5 °C 30.1 in /  1019.9 hPa NNE 4.6 mph /  7.4 km/h 4.6 mph /  7.4 km/h 62 % 0 in /  0.0 mm
00:15 52 °F /  11.1 °C 42.4 °F /  5.8 °C 30.1 in /  1019.9 hPa Calm   1 mph /  1.6 km/h 70 % 0 in /  0.0 mm
00:25 51.8 °F /  11.0 °C 42.3 °F /  5.7 °C 30.1 in /  1019.9 hPa Calm     70 % 0 in /  0.0 mm
00:35 51.4 °F /  10.8 °C 42.3 °F /  5.7 °C 30.1 in /  1019.9 hPa WSW 1 mph /  1.6 km/h 1 mph /  1.6 km/h 71 % 0 in /  0.0 mm
00:45 51.1 °F /  10.6 °C 42.1 °F /  5.6 °C 30.1 in /  1019.9 hPa WSW 1 mph /  1.6 km/h 2 mph /  3.2 km/h 71 % 0 in /  0.0 mm
00:55 50.9 °F /  10.5 °C 41.5 °F /  5.3 °C 30.1 in /  1019.9 hPa WSW 2 mph /  3.2 km/h 2 mph /  3.2 km/h 70 % 0 in /  0.0 mm
01:05 51.3 °F /  10.7 °C 42.3 °F /  5.7 °C 30.1 in /  1019.9 hPa WSW 1 mph /  1.6 km/h 2 mph /  3.2 km/h 71 % 0 in /  0.0 mm
01:15 51.3 °F /  10.7 °C 43 °F /  6.1 °C 30.1 in /  1019.9 hPa Calm   1 mph /  1.6 km/h 73 % 0 in /  0.0 mm
01:25 51.1 °F /  10.6 °C 43.2 °F /  6.2 °C 30.1 in /  1019.9 hPa Calm   1 mph /  1.6 km/h 74 % 0 in /  0.0 mm
01:35 50.9 °F /  10.5 °C 43 °F /  6.1 °C 30.1 in /  1019.9 hPa Calm   1 mph /  1.6 km/h 74 % 0 in /  0.0 mm
01:45 50.7 °F /  10.4 °C 42.4 °F /  5.8 °C 30.1 in /  1019.9 hPa North 1 mph /  1.6 km/h 1 mph /  1.6 km/h 73 % 0 in /  0.0 mm
01:55 50.9 °F /  10.5 °C 41.7 °F /  5.4 °C 30.1 in /  1019.9 hPa North 1 mph /  1.6 km/h 2 mph /  3.2 km/h 71 % 0 in /  0.0 mm
02:05 50.9 °F /  10.5 °C 42.3 °F /  5.7 °C 30.1 in /  1018.8 hPa Calm   3 mph /  4.8 km/h 72 % 0 in /  0.0 mm
02:15 51.4 °F /  10.8 °C 42.3 °F /  5.7 °C 30.1 in /  1018.8 hPa NNW 1 mph /  1.6 km/h 2 mph /  3.2 km/h 71 % 0 in /  0.0 mm
02:25 51.6 °F /  10.9 °C 43 °F /  6.1 °C 30.1 in /  1018.8 hPa Calm   1 mph /  1.6 km/h 72 % 0 in /  0.0 mm
02:35 52 °F /  11.1 °C 43 °F /  6.1 °C 30.1 in /  1018.8 hPa WSW 2 mph /  3.2 km/h 3 mph /  4.8 km/h 71 % 0 in /  0.0 mm
02:45 51.8 °F /  11.0 °C 42.6 °F /  5.9 °C 30.1 in /  1018.8 hPa WSW 2 mph /  3.2 km/h 4 mph /  6.4 km/h 71 % 0 in /  0.0 mm
02:55 52.2 °F /  11.2 °C 43.3 °F /  6.3 °C 30.1 in /  1019.9 hPa WSW 2 mph /  3.2 km/h 3 mph /  4.8 km/h 72 % 0 in /  0.0 mm
03:05 52.5 °F /  11.4 °C 43.9 °F /  6.6 °C 30.1 in /  1019.9 hPa SW 2 mph /  3.2 km/h 3 mph /  4.8 km/h 72 % 0 in /  0.0 mm
03:15 53.8 °F /  12.1 °C 45.3 °F /  7.4 °C 30.1 in /  1019.9 hPa Calm   2 mph /  3.2 km/h 73 % 0 in /  0.0 mm
03:25 54.3 °F /  12.4 °C 45.5 °F /  7.5 °C 30.1 in /  1019.9 hPa SW 2 mph /  3.2 km/h 2 mph /  3.2 km/h 72 % 0 in /  0.0 mm
03:35 55.2 °F /  12.9 °C 46.8 °F /  8.2 °C 30.2 in /  1020.9 hPa SW 1 mph /  1.6 km/h 2 mph /  3.2 km/h 73 % 0 in /  0.0 mm
03:45 56.7 °F /  13.7 °C 47.7 °F /  8.7 °C 30.2 in /  1020.9 hPa Calm   2 mph /  3.2 km/h 72 % 0 in /  0.0 mm
03:55 57.9 °F /  14.4 °C 48.2 °F /  9.0 °C 30.1 in /  1019.9 hPa SE 2 mph /  3.2 km/h 2 mph /  3.2 km/h 70 % 0 in /  0.0 mm
04:05 58.6 °F /  14.8 °C 48 °F /  8.9 °C 30.2 in /  1020.9 hPa East 1 mph /  1.6 km/h 3 mph /  4.8 km/h 68 % 0 in /  0.0 mm
04:15 58.6 °F /  14.8 °C 47.3 °F /  8.5 °C 30.2 in /  1020.9 hPa NE 3 mph /  4.8 km/h 3 mph /  4.8 km/h 66 % 0 in /  0.0 mm
04:25 60.1 °F /  15.6 °C 48.4 °F /  9.1 °C 30.2 in /  1020.9 hPa NE 3 mph /  4.8 km/h 4 mph /  6.4 km/h 65 % 0 in /  0.0 mm
04:35 60.1 °F /  15.6 °C 47.8 °F /  8.8 °C 30.2 in /  1020.9 hPa NE 2 mph /  3.2 km/h 4 mph /  6.4 km/h 64 % 0 in /  0.0 mm
04:45 61.3 °F /  16.3 °C 48.6 °F /  9.2 °C 30.2 in /  1020.9 hPa NE 3 mph /  4.8 km/h 3 mph /  4.8 km/h 63 % 0 in /  0.0 mm
04:55 62.1 °F /  16.7 °C 48.9 °F /  9.4 °C 30.2 in /  1020.9 hPa NW 2 mph /  3.2 km/h 3 mph /  4.8 km/h 62 % 0 in /  0.0 mm
05:05 64.2 °F /  17.9 °C 50 °F /  10.0 °C 30.2 in /  1020.9 hPa NW 1 mph /  1.6 km/h 3 mph /  4.8 km/h 60 % 0 in /  0.0 mm
05:15 64.4 °F /  18.0 °C 48.7 °F /  9.3 °C 30.2 in /  1020.9 hPa ENE 3 mph /  4.8 km/h 4 mph /  6.4 km/h 57 % 0 in /  0.0 mm
05:25 64.9 °F /  18.3 °C 48.9 °F /  9.4 °C 30.2 in /  1020.9 hPa ENE 1 mph /  1.6 km/h 3 mph /  4.8 km/h 56 % 0 in /  0.0 mm
05:35 66.9 °F /  19.4 °C 50.2 °F /  10.1 °C 30.1 in /  1019.9 hPa East 1 mph /  1.6 km/h 2 mph /  3.2 km/h 55 % 0 in /  0.0 mm
05:45 67.5 °F /  19.7 °C 49.3 °F /  9.6 °C 30.1 in /  1019.9 hPa SSW 2 mph /  3.2 km/h 3 mph /  4.8 km/h 52 % 0 in /  0.0 mm
05:55 67.8 °F /  19.9 °C 49.5 °F /  9.7 °C 30.1 in /  1019.9 hPa SSE 1 mph /  1.6 km/h 5 mph /  8.0 km/h 52 % 0 in /  0.0 mm
06:05 67.6 °F /  19.8 °C 48.9 °F /  9.4 °C 30.1 in /  1019.9 hPa SE 3 mph /  4.8 km/h 4 mph /  6.4 km/h 51 % 0 in /  0.0 mm
06:15 67.3 °F /  19.6 °C 48.9 °F /  9.4 °C 30.1 in /  1019.9 hPa SE 2 mph /  3.2 km/h 4 mph /  6.4 km/h 52 % 0 in /  0.0 mm
06:25 68 °F /  20.0 °C 48.7 °F /  9.3 °C 30.1 in /  1019.9 hPa SE 1 mph /  1.6 km/h 4 mph /  6.4 km/h 50 % 0 in /  0.0 mm
06:35 68.2 °F /  20.1 °C 49.5 °F /  9.7 °C 30.1 in /  1019.9 hPa East 1 mph /  1.6 km/h 4 mph /  6.4 km/h 51 % 0 in /  0.0 mm
06:45 68 °F /  20.0 °C 48.7 °F /  9.3 °C 30.1 in /  1019.9 hPa East 3 mph /  4.8 km/h 4 mph /  6.4 km/h 50 % 0 in /  0.0 mm
06:55 68.4 °F /  20.2 °C 48.6 °F /  9.2 °C 30.2 in /  1020.9 hPa ENE 1 mph /  1.6 km/h 3 mph /  4.8 km/h 49 % 0 in /  0.0 mm
07:05 69.4 °F /  20.8 °C 49.5 °F /  9.7 °C 30.2 in /  1020.9 hPa ENE 2 mph /  3.2 km/h 4 mph /  6.4 km/h 49 % 0 in /  0.0 mm
07:15 69.4 °F /  20.8 °C 48.9 °F /  9.4 °C 30.2 in /  1020.9 hPa East 5 mph /  8.0 km/h 5 mph /  8.0 km/h 48 % 0 in /  0.0 mm
07:25 70.3 °F /  21.3 °C 49.1 °F /  9.5 °C 30.1 in /  1019.9 hPa East 5 mph /  8.0 km/h 5 mph /  8.0 km/h 47 % 0 in /  0.0 mm
07:35 70 °F /  21.1 °C 48.2 °F /  9.0 °C 30.1 in /  1019.9 hPa ESE 5 mph /  8.0 km/h 5 mph /  8.0 km/h 46 % 0 in /  0.0 mm
07:45 72.5 °F /  22.5 °C 49.8 °F /  9.9 °C 30.1 in /  1019.9 hPa SE 2 mph /  3.2 km/h 3 mph /  4.8 km/h 45 % 0 in /  0.0 mm
07:55 70.7 °F /  21.5 °C 47.7 °F /  8.7 °C 30.1 in /  1019.9 hPa East 1 mph /  1.6 km/h 4 mph /  6.4 km/h 44 % 0 in /  0.0 mm
08:05 71.8 °F /  22.1 °C 47.5 °F /  8.6 °C 30.1 in /  1019.9 hPa East 3 mph /  4.8 km/h 5 mph /  8.0 km/h 42 % 0 in /  0.0 mm
08:15 73 °F /  22.8 °C 48.6 °F /  9.2 °C 30.1 in /  1019.9 hPa SE 3 mph /  4.8 km/h 4 mph /  6.4 km/h 42 % 0 in /  0.0 mm
08:25 73.9 °F /  23.3 °C 48 °F /  8.9 °C 30.1 in /  1019.9 hPa South 2 mph /  3.2 km/h 6 mph /  9.7 km/h 40 % 0 in /  0.0 mm
08:35 73 °F /  22.8 °C 47.3 °F /  8.5 °C 30.1 in /  1019.9 hPa ESE 3 mph /  4.8 km/h 5 mph /  8.0 km/h 40 % 0 in /  0.0 mm
08:45 74.8 °F /  23.8 °C 48.2 °F /  9.0 °C 30.1 in /  1019.9 hPa ESE 2 mph /  3.2 km/h 6 mph /  9.7 km/h 39 % 0 in /  0.0 mm
08:55 75.2 °F /  24.0 °C 46.4 °F /  8.0 °C 30.1 in /  1018.8 hPa SW 3 mph /  4.8 km/h 6 mph /  9.7 km/h 36 % 0 in /  0.0 mm
09:05 75.9 °F /  24.4 °C 47.8 °F /  8.8 °C 30.1 in /  1018.8 hPa SSW 2 mph /  3.2 km/h 5 mph /  8.0 km/h 37 % 0 in /  0.0 mm
09:15 75.4 °F /  24.1 °C 47.3 °F /  8.5 °C 30.1 in /  1018.8 hPa SSE 3 mph /  4.8 km/h 4 mph /  6.4 km/h 37 % 0 in /  0.0 mm
09:25 75.6 °F /  24.2 °C 48.9 °F /  9.4 °C 30.1 in /  1018.8 hPa SE 3 mph /  4.8 km/h 6 mph /  9.7 km/h 39 % 0 in /  0.0 mm
09:35 76.8 °F /  24.9 °C 48.6 °F /  9.2 °C 30.1 in /  1018.8 hPa SE 2 mph /  3.2 km/h 4 mph /  6.4 km/h 37 % 0 in /  0.0 mm
09:45 76.1 °F /  24.5 °C 49.3 °F /  9.6 °C 30.1 in /  1018.8 hPa SE 3 mph /  4.8 km/h 5 mph /  8.0 km/h 39 % 0 in /  0.0 mm
09:55 75.7 °F /  24.3 °C 50.4 °F /  10.2 °C 30.1 in /  1017.8 hPa SE 6 mph /  9.7 km/h 8 mph /  12.9 km/h 41 % 0 in /  0.0 mm
10:05 75.9 °F /  24.4 °C 50.5 °F /  10.3 °C 30.1 in /  1017.8 hPa ESE 3 mph /  4.8 km/h 6 mph /  9.7 km/h 41 % 0 in /  0.0 mm
10:15 75 °F /  23.9 °C 50.4 °F /  10.2 °C 30.1 in /  1017.8 hPa ESE 5 mph /  8.0 km/h 6 mph /  9.7 km/h 42 % 0 in /  0.0 mm
10:25 73.9 °F /  23.3 °C 50.5 °F /  10.3 °C 30.1 in /  1017.8 hPa ESE 7 mph /  11.3 km/h 10 mph /  16.1 km/h 44 % 0 in /  0.0 mm
10:35 72.5 °F /  22.5 °C 51.1 °F /  10.6 °C 30.1 in /  1017.8 hPa ESE 9 mph /  14.5 km/h 11 mph /  17.7 km/h 47 % 0 in /  0.0 mm
10:45 71.6 °F /  22.0 °C 50.9 °F /  10.5 °C 30.1 in /  1017.8 hPa ESE 9 mph /  14.5 km/h 11 mph /  17.7 km/h 48 % 0 in /  0.0 mm
10:55 71.1 °F /  21.7 °C 51.4 °F /  10.8 °C 30.1 in /  1017.8 hPa East 9 mph /  14.5 km/h 15 mph /  24.1 km/h 50 % 0 in /  0.0 mm
11:05 70.2 °F /  21.2 °C 50.5 °F /  10.3 °C 30.1 in /  1017.8 hPa East 5 mph /  8.0 km/h 10 mph /  16.1 km/h 50 % 0 in /  0.0 mm
11:15 69.4 °F /  20.8 °C 51.6 °F /  10.9 °C 30.1 in /  1017.8 hPa East 7 mph /  11.3 km/h 13 mph /  20.9 km/h 53 % 0 in /  0.0 mm
11:25 69.1 °F /  20.6 °C 51.6 °F /  10.9 °C 30.1 in /  1017.8 hPa ESE 8 mph /  12.9 km/h 9 mph /  14.5 km/h 54 % 0 in /  0.0 mm
11:35 68.9 °F /  20.5 °C 52.5 °F /  11.4 °C 30.1 in /  1017.8 hPa ESE 7 mph /  11.3 km/h 10 mph /  16.1 km/h 56 % 0 in /  0.0 mm
11:45 69.4 °F /  20.8 °C 53.1 °F /  11.7 °C 30.1 in /  1017.8 hPa ENE 6 mph /  9.7 km/h 8 mph /  12.9 km/h 56 % 0 in /  0.0 mm
11:55 68.9 °F /  20.5 °C 53.1 °F /  11.7 °C 30.1 in /  1017.8 hPa NE 9 mph /  14.5 km/h 10 mph /  16.1 km/h 57 % 0 in /  0.0 mm
12:05 68.2 °F /  20.1 °C 52.9 °F /  11.6 °C 30 in /  1016.8 hPa ENE 6 mph /  9.7 km/h 8 mph /  12.9 km/h 58 % 0 in /  0.0 mm
12:15 67.6 °F /  19.8 °C 53.2 °F /  11.8 °C 30 in /  1016.8 hPa East 10 mph /  16.1 km/h 13 mph /  20.9 km/h 60 % 0 in /  0.0 mm
12:25 67.5 °F /  19.7 °C 53.4 °F /  11.9 °C 30.1 in /  1017.8 hPa East 9 mph /  14.5 km/h 11 mph /  17.7 km/h 61 % 0 in /  0.0 mm
12:35 67.1 °F /  19.5 °C 53.6 °F /  12.0 °C 30.1 in /  1017.8 hPa East 8 mph /  12.9 km/h 9 mph /  14.5 km/h 62 % 0 in /  0.0 mm
12:45 66.9 °F /  19.4 °C 53.4 °F /  11.9 °C 30.1 in /  1017.8 hPa East 8 mph /  12.9 km/h 10 mph /  16.1 km/h 62 % 0 in /  0.0 mm
17:49 66.7 °F /  19.3 °C 53.2 °F /  11.8 °C 30 in /  1016.8 hPa East 5.8 mph /  9.3 km/h 6.2 mph /  10.0 km/h 62 % 0 in /  0.0 mm
17:55 66.6 °F /  19.2 °C 53.1 °F /  11.7 °C 30 in /  1016.8 hPa East 8 mph /  12.9 km/h 15 mph /  24.1 km/h 62 % 0 in /  0.0 mm
18:00 66.4 °F /  19.1 °C 53.1 °F /  11.7 °C 30 in /  1016.8 hPa ENE 8.1 mph /  13.0 km/h 8.1 mph /  13.0 km/h 62 % 0 in /  0.0 mm
18:05 66.2 °F /  19.0 °C 52.9 °F /  11.6 °C 30 in /  1016.8 hPa SE 12.7 mph /  20.4 km/h 12.7 mph /  20.4 km/h 62 % 0 in /  0.0 mm
18:10 65.8 °F /  18.8 °C 53.2 °F /  11.8 °C 30 in /  1016.8 hPa East 5 mph /  8.0 km/h 11 mph /  17.7 km/h 64 % 0 in /  0.0 mm
18:15 65.8 °F /  18.8 °C 53.2 °F /  11.8 °C 30.1 in /  1017.8 hPa East 8.1 mph /  13.0 km/h 8.1 mph /  13.0 km/h 64 % 0 in /  0.0 mm
18:20 65.5 °F /  18.6 °C 53.1 °F /  11.7 °C 30.1 in /  1017.8 hPa ENE 10.4 mph /  16.7 km/h 10.4 mph /  16.7 km/h 64 % 0 in /  0.0 mm
18:25 65.5 °F /  18.6 °C 53.1 °F /  11.7 °C 30.1 in /  1017.8 hPa ESE 10.4 mph /  16.7 km/h 10.4 mph /  16.7 km/h 64 % 0 in /  0.0 mm
18:30 65.3 °F /  18.5 °C 53.2 °F /  11.8 °C 30.1 in /  1017.8 hPa ESE 15 mph /  24.1 km/h 15 mph /  24.1 km/h 65 % 0 in /  0.0 mm
18:35 64.9 °F /  18.3 °C 52.9 °F /  11.6 °C 30.1 in /  1017.8 hPa ESE 10.4 mph /  16.7 km/h 10.4 mph /  16.7 km/h 65 % 0 in /  0.0 mm
18:40 64.8 °F /  18.2 °C 52.5 °F /  11.4 °C 30.1 in /  1017.8 hPa East 9 mph /  14.5 km/h 15 mph /  24.1 km/h 65 % 0 in /  0.0 mm
18:45 64.6 °F /  18.1 °C 52.5 °F /  11.4 °C 30.1 in /  1017.8 hPa ESE 7 mph /  11.3 km/h 13 mph /  20.9 km/h 65 % 0 in /  0.0 mm
18:50 64.6 °F /  18.1 °C 52.5 °F /  11.4 °C 30.1 in /  1017.8 hPa East 5 mph /  8.0 km/h 10 mph /  16.1 km/h 65 % 0 in /  0.0 mm
18:55 64.4 °F /  18.0 °C 52.3 °F /  11.3 °C 30.1 in /  1017.8 hPa East 12.7 mph /  20.4 km/h 12.7 mph /  20.4 km/h 65 % 0 in /  0.0 mm
19:00 64.2 °F /  17.9 °C 52.2 °F /  11.2 °C 30.1 in /  1017.8 hPa ENE 8.1 mph /  13.0 km/h 8.1 mph /  13.0 km/h 65 % 0 in /  0.0 mm
19:05 63.9 °F /  17.7 °C 52.3 °F /  11.3 °C 30.1 in /  1017.8 hPa SSE 11.5 mph /  18.5 km/h 11.5 mph /  18.5 km/h 66 % 0 in /  0.0 mm
19:10 63.7 °F /  17.6 °C 52.2 °F /  11.2 °C 30.1 in /  1017.8 hPa ENE 9.2 mph /  14.8 km/h 9.2 mph /  14.8 km/h 66 % 0 in /  0.0 mm
19:15 63.7 °F /  17.6 °C 52.2 °F /  11.2 °C 30.1 in /  1017.8 hPa ESE 6.9 mph /  11.1 km/h 7.4 mph /  11.9 km/h 66 % 0 in /  0.0 mm
19:20 63.5 °F /  17.5 °C 52.3 °F /  11.3 °C 30.1 in /  1017.8 hPa ESE 8.1 mph /  13.0 km/h 8.1 mph /  13.0 km/h 67 % 0 in /  0.0 mm
19:21 63.5 °F /  17.5 °C 52 °F /  11.1 °C 30.1 in /  1017.8 hPa ENE 8.1 mph /  13.0 km/h 8.1 mph /  13.0 km/h 66 % 0 in /  0.0 mm
19:26 63.5 °F /  17.5 °C 52 °F /  11.1 °C 30.1 in /  1017.8 hPa ESE 10.4 mph /  16.7 km/h 10.4 mph /  16.7 km/h 66 % 0 in /  0.0 mm
19:30 56.8 °F /  13.8 °C 48.9 °F /  9.4 °C 30.1 in /  1019.9 hPa NE 2 mph /  3.2 km/h 2 mph /  3.2 km/h 75 % 0 in /  0.0 mm
19:31 63.5 °F /  17.5 °C 52 °F /  11.1 °C 30.1 in /  1017.8 hPa ESE 5.8 mph /  9.3 km/h 5.8 mph /  9.3 km/h 66 % 0 in /  0.0 mm
19:36 63.5 °F /  17.5 °C 52 °F /  11.1 °C 30.1 in /  1017.8 hPa ENE 5.8 mph /  9.3 km/h 5.8 mph /  9.3 km/h 66 % 0 in /  0.0 mm
19:40 56.7 °F /  13.7 °C 48.7 °F /  9.3 °C 30.1 in /  1019.9 hPa NE 2 mph /  3.2 km/h 3 mph /  4.8 km/h 75 % 0 in /  0.0 mm
19:41 63.1 °F /  17.3 °C 51.6 °F /  10.9 °C 30.1 in /  1017.8 hPa ESE 8.1 mph /  13.0 km/h 8.1 mph /  13.0 km/h 66 % 0 in /  0.0 mm
19:46 62.8 °F /  17.1 °C 51.6 °F /  10.9 °C 30.1 in /  1017.8 hPa ESE 6.9 mph /  11.1 km/h 6.9 mph /  11.1 km/h 67 % 0 in /  0.0 mm
19:50 56.7 °F /  13.7 °C 49.3 °F /  9.6 °C 30.1 in /  1019.9 hPa NE 2 mph /  3.2 km/h 2 mph /  3.2 km/h 76 % 0 in /  0.0 mm
19:51 62.4 °F /  16.9 °C 52.2 °F /  11.2 °C 30.1 in /  1017.8 hPa ESE 8.1 mph /  13.0 km/h 8.1 mph /  13.0 km/h 69 % 0 in /  0.0 mm
19:53 62.4 °F /  16.9 °C 52.2 °F /  11.2 °C 30.1 in /  1017.8 hPa ESE 8.1 mph /  13.0 km/h 8.1 mph /  13.0 km/h 69 % 0 in /  0.0 mm
19:58 62.2 °F /  16.8 °C 52 °F /  11.1 °C 30.1 in /  1017.8 hPa ENE 12.1 mph /  19.5 km/h 12.1 mph /  19.5 km/h 69 % 0 in /  0.0 mm
20:00 56.7 °F /  13.7 °C 49.3 °F /  9.6 °C 30.1 in /  1019.9 hPa NNE 1 mph /  1.6 km/h 2 mph /  3.2 km/h 76 % 0 in /  0.0 mm
20:03 62.2 °F /  16.8 °C 52.3 °F /  11.3 °C 30.1 in /  1017.8 hPa ENE 9.2 mph /  14.8 km/h 9.2 mph /  14.8 km/h 70 % 0 in /  0.0 mm
20:08 62.1 °F /  16.7 °C 52.2 °F /  11.2 °C 30.1 in /  1017.8 hPa ESE 9.8 mph /  15.8 km/h 9.8 mph /  15.8 km/h 70 % 0 in /  0.0 mm
20:10 56.7 °F /  13.7 °C 49.3 °F /  9.6 °C 30.1 in /  1019.9 hPa NNE 2 mph /  3.2 km/h 3 mph /  4.8 km/h 76 % 0 in /  0.0 mm
20:13 61.7 °F /  16.5 °C 51.8 °F /  11.0 °C 30.1 in /  1017.8 hPa East 12.7 mph /  20.4 km/h 12.7 mph /  20.4 km/h 70 % 0 in /  0.0 mm
20:18 61.7 °F /  16.5 °C 51.8 °F /  11.0 °C 30.1 in /  1017.8 hPa ESE 9.2 mph /  14.8 km/h 9.2 mph /  14.8 km/h 70 % 0 in /  0.0 mm
20:20 56.8 °F /  13.8 °C 49.5 °F /  9.7 °C 30.1 in /  1018.8 hPa NNE 2 mph /  3.2 km/h 3 mph /  4.8 km/h 76 % 0 in /  0.0 mm
20:23 61.7 °F /  16.5 °C 51.8 °F /  11.0 °C 30.1 in /  1017.8 hPa ESE 6.9 mph /  11.1 km/h 6.9 mph /  11.1 km/h 70 % 0 in /  0.0 mm
20:28 61.7 °F /  16.5 °C 52.2 °F /  11.2 °C 30.1 in /  1018.8 hPa East 8.1 mph /  13.0 km/h 8.1 mph /  13.0 km/h 71 % 0 in /  0.0 mm
20:30 56.7 °F /  13.7 °C 49.3 °F /  9.6 °C 30.1 in /  1018.8 hPa NNE 2 mph /  3.2 km/h 2 mph /  3.2 km/h 76 % 0 in /  0.0 mm
20:33 61.5 °F /  16.4 °C 52.3 °F /  11.3 °C 30.1 in /  1018.8 hPa NE 5.8 mph /  9.3 km/h 5.8 mph /  9.3 km/h 72 % 0 in /  0.0 mm
20:38 61.3 °F /  16.3 °C 52.2 °F /  11.2 °C 30.1 in /  1018.8 hPa ESE 6.9 mph /  11.1 km/h 6.9 mph /  11.1 km/h 72 % 0 in /  0.0 mm
20:40 56.5 °F /  13.6 °C 48.9 °F /  9.4 °C 30.1 in /  1019.9 hPa NE 1 mph /  1.6 km/h 3 mph /  4.8 km/h 76 % 0 in /  0.0 mm
20:43 61 °F /  16.1 °C 52 °F /  11.1 °C 30.1 in /  1018.8 hPa East 5.8 mph /  9.3 km/h 5.8 mph /  9.3 km/h 72 % 0 in /  0.0 mm
20:48 60.8 °F /  16.0 °C 51.6 °F /  10.9 °C 30.1 in /  1018.8 hPa ENE 6.9 mph /  11.1 km/h 6.9 mph /  11.1 km/h 72 % 0 in /  0.0 mm
20:50 56.3 °F /  13.5 °C 48.7 °F /  9.3 °C 30.1 in /  1019.9 hPa NE 1 mph /  1.6 km/h 1 mph /  1.6 km/h 76 % 0 in /  0.0 mm
20:53 60.6 °F /  15.9 °C 52 °F /  11.1 °C 30.1 in /  1018.8 hPa ESE 10.4 mph /  16.7 km/h 10.4 mph /  16.7 km/h 73 % 0 in /  0.0 mm
20:58 60.3 °F /  15.7 °C 52 °F /  11.1 °C 30.1 in /  1018.8 hPa East 8.1 mph /  13.0 km/h 8.1 mph /  13.0 km/h 74 % 0 in /  0.0 mm
21:00 56.1 °F /  13.4 °C 48.7 °F /  9.3 °C 30.1 in /  1019.9 hPa Calm     76 % 0 in /  0.0 mm
21:03 60.3 °F /  15.7 °C 52 °F /  11.1 °C 30.1 in /  1018.8 hPa ESE 8.1 mph /  13.0 km/h 8.1 mph /  13.0 km/h 74 % 0 in /  0.0 mm
21:08 60.1 °F /  15.6 °C 52.2 °F /  11.2 °C 30.1 in /  1018.8 hPa ESE 9 mph /  14.5 km/h 9 mph /  14.5 km/h 75 % 0 in /  0.0 mm
21:10 55.9 °F /  13.3 °C 48.6 °F /  9.2 °C 30.1 in /  1019.9 hPa NNE 1 mph /  1.6 km/h 1 mph /  1.6 km/h 76 % 0 in /  0.0 mm
21:13 59.9 °F /  15.5 °C 52 °F /  11.1 °C 30.1 in /  1018.8 hPa NE 5.8 mph /  9.3 km/h 5.8 mph /  9.3 km/h 75 % 0 in /  0.0 mm
21:18 59.9 °F /  15.5 °C 52 °F /  11.1 °C 30.1 in /  1018.8 hPa ESE 9.2 mph /  14.8 km/h 9.2 mph /  14.8 km/h 75 % 0 in /  0.0 mm
21:20 55.8 °F /  13.2 °C 48.4 °F /  9.1 °C 30.1 in /  1019.9 hPa Calm   1 mph /  1.6 km/h 76 % 0 in /  0.0 mm
21:23 59.7 °F /  15.4 °C 52.2 °F /  11.2 °C 30.1 in /  1018.8 hPa East 6.2 mph /  10.0 km/h 6.2 mph /  10.0 km/h 76 % 0 in /  0.0 mm
21:28 59.7 °F /  15.4 °C 51.8 °F /  11.0 °C 30.1 in /  1019.9 hPa East 6.9 mph /  11.1 km/h 6.9 mph /  11.1 km/h 75 % 0 in /  0.0 mm
21:30 55.4 °F /  13.0 °C 48 °F /  8.9 °C 30.1 in /  1019.9 hPa Calm     76 % 0 in /  0.0 mm
21:33 59.5 °F /  15.3 °C 52 °F /  11.1 °C 30.1 in /  1019.9 hPa ESE 5.8 mph /  9.3 km/h 5.8 mph /  9.3 km/h 76 % 0 in /  0.0 mm
21:38 59.5 °F /  15.3 °C 51.6 °F /  10.9 °C 30.1 in /  1019.9 hPa ENE 5.8 mph /  9.3 km/h 5.8 mph /  9.3 km/h 75 % 0 in /  0.0 mm
21:40 54.5 °F /  12.5 °C 47.1 °F /  8.4 °C 30.1 in /  1019.9 hPa Calm     76 % 0 in /  0.0 mm
21:43 59.5 °F /  15.3 °C 51.6 °F /  10.9 °C 30.1 in /  1019.9 hPa ESE 4.9 mph /  7.9 km/h 4.9 mph /  7.9 km/h 75 % 0 in /  0.0 mm
21:49 59.4 °F /  15.2 °C 51.4 °F /  10.8 °C 30.1 in /  1019.9 hPa NE 6.9 mph /  11.1 km/h 6.9 mph /  11.1 km/h 75 % 0 in /  0.0 mm
21:50 54.1 °F /  12.3 °C 47.1 °F /  8.4 °C 30.1 in /  1019.9 hPa WSW 2 mph /  3.2 km/h 2 mph /  3.2 km/h 77 % 0 in /  0.0 mm
21:54 59.4 °F /  15.2 °C 51.4 °F /  10.8 °C 30.1 in /  1019.9 hPa ENE 5.8 mph /  9.3 km/h 5.8 mph /  9.3 km/h 75 % 0 in /  0.0 mm
21:59 59.4 °F /  15.2 °C 51.8 °F /  11.0 °C 30.1 in /  1018.8 hPa ENE 4.6 mph /  7.4 km/h 4.6 mph /  7.4 km/h 76 % 0 in /  0.0 mm
22:00 54.1 °F /  12.3 °C 47.1 °F /  8.4 °C 30.1 in /  1019.9 hPa WSW 1 mph /  1.6 km/h 2 mph /  3.2 km/h 77 % 0 in /  0.0 mm
22:04 59.4 °F /  15.2 °C 51.8 °F /  11.0 °C 30.1 in /  1018.8 hPa ENE 4.6 mph /  7.4 km/h 4.6 mph /  7.4 km/h 76 % 0 in /  0.0 mm
22:09 59.2 °F /  15.1 °C 51.6 °F /  10.9 °C 30.1 in /  1018.8 hPa NE 5.8 mph /  9.3 km/h 5.8 mph /  9.3 km/h 76 % 0 in /  0.0 mm
22:10 54 °F /  12.2 °C 47.3 °F /  8.5 °C 30.1 in /  1019.9 hPa Calm     78 % 0 in /  0.0 mm
22:14 59 °F /  15.0 °C 51.4 °F /  10.8 °C 30.1 in /  1019.9 hPa ENE 6.9 mph /  11.1 km/h 6.9 mph /  11.1 km/h 76 % 0 in /  0.0 mm
22:19 59 °F /  15.0 °C 51.4 °F /  10.8 °C 30.1 in /  1019.9 hPa East 4.6 mph /  7.4 km/h 4.6 mph /  7.4 km/h 76 % 0 in /  0.0 mm
22:20 53.6 °F /  12.0 °C 46.9 °F /  8.3 °C 30.1 in /  1019.9 hPa SW 1 mph /  1.6 km/h 2 mph /  3.2 km/h 78 % 0 in /  0.0 mm
22:24 59 °F /  15.0 °C 51.4 °F /  10.8 °C 30.1 in /  1019.9 hPa NNE 2.4 mph /  3.9 km/h 2.4 mph /  3.9 km/h 76 % 0 in /  0.0 mm
22:29 58.8 °F /  14.9 °C 51.3 °F /  10.7 °C 30.1 in /  1019.9 hPa NNE 3.5 mph /  5.6 km/h 3.5 mph /  5.6 km/h 76 % 0 in /  0.0 mm
22:30 53.2 °F /  11.8 °C 46.6 °F /  8.1 °C 30.1 in /  1019.9 hPa Calm   2 mph /  3.2 km/h 78 % 0 in /  0.0 mm
22:35 58.8 °F /  14.9 °C 51.3 °F /  10.7 °C 30.1 in /  1019.9 hPa ESE 4.6 mph /  7.4 km/h 4.6 mph /  7.4 km/h 76 % 0 in /  0.0 mm
22:40 58.6 °F /  14.8 °C 51.1 °F /  10.6 °C 30.1 in /  1019.9 hPa East 3.5 mph /  5.6 km/h 3.5 mph /  5.6 km/h 76 % 0 in /  0.0 mm
22:45 58.5 °F /  14.7 °C 50.9 °F /  10.5 °C 30.1 in /  1019.9 hPa ENE 3.6 mph /  5.8 km/h 3.6 mph /  5.8 km/h 76 % 0 in /  0.0 mm
22:50 58.3 °F /  14.6 °C 50.7 °F /  10.4 °C 30.1 in /  1019.9 hPa NNE 4.6 mph /  7.4 km/h 4.6 mph /  7.4 km/h 76 % 0 in /  0.0 mm
22:55 58.1 °F /  14.5 °C 50.5 °F /  10.3 °C 30.1 in /  1019.9 hPa NNE 3.5 mph /  5.6 km/h 3.8 mph /  6.1 km/h 76 % 0 in /  0.0 mm
23:00 58.1 °F /  14.5 °C 50.5 °F /  10.3 °C 30.1 in /  1019.9 hPa ENE 3.5 mph /  5.6 km/h 3.5 mph /  5.6 km/h 76 % 0 in /  0.0 mm
23:05 57.9 °F /  14.4 °C 50.4 °F /  10.2 °C 30.1 in /  1019.9 hPa NNE 4.6 mph /  7.4 km/h 4.6 mph /  7.4 km/h 76 % 0 in /  0.0 mm
23:10 57.7 °F /  14.3 °C 50.2 °F /  10.1 °C 30.1 in /  1019.9 hPa NE 2 mph /  3.2 km/h 5 mph /  8.0 km/h 76 % 0 in /  0.0 mm
23:15 57.7 °F /  14.3 °C 50.2 °F /  10.1 °C 30.1 in /  1019.9 hPa NE 4.6 mph /  7.4 km/h 4.6 mph /  7.4 km/h 76 % 0 in /  0.0 mm
23:20 57.6 °F /  14.2 °C 49.6 °F /  9.8 °C 30.1 in /  1019.9 hPa NNE 3.5 mph /  5.6 km/h 3.5 mph /  5.6 km/h 75 % 0 in /  0.0 mm
23:25 57.4 °F /  14.1 °C 49.5 °F /  9.7 °C 30.1 in /  1019.9 hPa NNE 4.6 mph /  7.4 km/h 4.6 mph /  7.4 km/h 75 % 0 in /  0.0 mm
23:30 57.4 °F /  14.1 °C 49.5 °F /  9.7 °C 30.1 in /  1019.9 hPa NNE 3.5 mph /  5.6 km/h 3.5 mph /  5.6 km/h 75 % 0 in /  0.0 mm
23:35 57.4 °F /  14.1 °C 49.5 °F /  9.7 °C 30.1 in /  1019.9 hPa NNE 3.5 mph /  5.6 km/h 3.5 mph /  5.6 km/h 75 % 0 in /  0.0 mm
23:40 57.4 °F /  14.1 °C 49.5 °F /  9.7 °C 30.1 in /  1019.9 hPa NE 3.5 mph /  5.6 km/h 3.5 mph /  5.6 km/h 75 % 0 in /  0.0 mm
23:45 57.2 °F /  14.0 °C 49.3 °F /  9.6 °C 30.1 in /  1019.9 hPa NE 4.6 mph /  7.4 km/h 4.6 mph /  7.4 km/h 75 % 0 in /  0.0 mm
23:50 57.2 °F /  14.0 °C 49.3 °F /  9.6 °C 30.1 in /  1019.9 hPa NNE 4 mph /  6.4 km/h 4 mph /  6.4 km/h 75 % 0 in /  0.0 mm
23:55 57.2 °F /  14.0 °C 49.3 °F /  9.6 °C 30.1 in /  1019.9 hPa ENE 3.5 mph /  5.6 km/h 3.5 mph /  5.6 km/h 75 % 0 in /  0.0 mm
Meteo Sesrovires
Elogis d' Weather Underground - 3.5 mb

Guio original per  Jim McMurry - jmcmurry@mwt.net Adaptat per a la plantilla per  Wim van der Kuil - Leuven-Template.eu

Trobareu la nostra informacio del temps tambe a:

Weather Underground

AWEKAS